Time;durP1;ratioP1;P1;durP2;ratioP2;P2;SDS_P1;SDS_P2;PMS_P1;PMS_P2;Temp;Humidity;BMP_temperature;BMP_pressure;BME280_temperature;BME280_humidity;BME280_pressure;Samples;Min_cycle;Max_cycle;Signal;HPM_P1;HPM_P2
2021/06/12 00:01:28;;;;;;;10.10;9.30;;;23.40;99.90;;;;;;4948704;28;20611;-80
2021/06/12 00:03:54;;;;;;;10.17;9.17;;;23.20;99.90;;;;;;4949678;28;20186;-80
2021/06/12 00:06:20;;;;;;;10.67;9.40;;;23.10;99.90;;;;;;4947008;28;20202;-82
2021/06/12 00:08:45;;;;;;;10.43;9.63;;;23.00;99.90;;;;;;4949776;28;20663;-85
2021/06/12 00:11:11;;;;;;;11.90;10.10;;;22.90;99.90;;;;;;4962824;28;20738;-81
2021/06/12 00:13:37;;;;;;;16.00;9.73;;;22.90;99.90;;;;;;4949592;29;20203;-83
2021/06/12 00:16:03;;;;;;;10.50;9.60;;;22.70;99.90;;;;;;4948836;28;20183;-82
2021/06/12 00:18:28;;;;;;;9.67;8.87;;;22.70;99.90;;;;;;4948917;28;20246;-84
2021/06/12 00:20:56;;;;;;;11.00;9.50;;;22.70;99.90;;;;;;4934002;29;21021;-81
2021/06/12 00:23:22;;;;;;;9.77;8.67;;;22.70;99.90;;;;;;4963909;28;20207;-82
2021/06/12 00:25:48;;;;;;;9.87;8.67;;;22.80;99.90;;;;;;4948207;28;20443;-80
2021/06/12 00:28:14;;;;;;;9.47;8.60;;;22.80;99.90;;;;;;4964842;28;20729;-84
2021/06/12 00:33:08;;;;;;;10.57;9.47;;;22.70;99.90;;;;;;4913790;29;20248;-67
2021/06/12 00:35:33;;;;;;;11.03;9.20;;;22.50;99.90;;;;;;4905892;29;20444;-67
2021/06/12 00:38:00;;;;;;;11.93;9.17;;;22.70;99.90;;;;;;4906253;29;20531;-67
2021/06/12 00:40:32;;;;;;;9.37;8.60;;;22.60;99.90;;;;;;4906478;29;20252;-67
2021/06/12 00:43:03;;;;;;;10.00;8.70;;;22.50;99.90;;;;;;4908872;29;20612;-67
2021/06/12 00:45:33;;;;;;;9.40;8.53;;;22.50;99.90;;;;;;4903677;29;20453;-66
2021/06/12 00:48:03;;;;;;;9.40;8.60;;;22.50;99.90;;;;;;4918602;29;20520;-66
2021/06/12 00:50:33;;;;;;;9.13;8.33;;;22.60;99.90;;;;;;4906391;29;20829;-67
2021/06/12 00:53:02;;;;;;;9.90;8.30;;;22.70;99.90;;;;;;4909202;29;21001;-66
2021/06/12 00:55:31;;;;;;;8.80;8.00;;;22.70;99.90;;;;;;4975107;22;20541;-67
2021/06/12 00:58:00;;;;;;;9.13;8.40;;;22.70;99.90;;;;;;4945152;28;20455;-67
2021/06/12 01:00:26;;;;;;;10.00;9.07;;;22.70;99.90;;;;;;4943351;29;20467;-67
2021/06/12 01:02:52;;;;;;;10.27;9.37;;;22.80;99.90;;;;;;4943048;28;20499;-66
2021/06/12 01:05:22;;;;;;;9.23;8.53;;;22.90;99.90;;;;;;4942727;28;20278;-66
2021/06/12 01:07:47;;;;;;;9.30;8.50;;;22.80;99.90;;;;;;4939032;29;20626;-66
2021/06/12 01:10:16;;;;;;;9.93;8.93;;;23.00;99.90;;;;;;4943370;29;20437;-66
2021/06/12 01:12:48;;;;;;;9.97;9.17;;;23.00;99.90;;;;;;4940387;28;20221;-67
2021/06/12 01:15:14;;;;;;;11.30;10.20;;;23.00;99.90;;;;;;4941422;29;22388;-67
2021/06/12 01:17:52;;;;;;;9.40;8.50;;;22.70;99.90;;;;;;4939979;29;20498;-66
2021/06/12 01:20:36;;;;;;;10.43;9.23;;;22.90;99.90;;;;;;4940376;29;20970;-66
2021/06/12 01:23:23;;;;;;;10.60;9.70;;;22.90;99.90;;;;;;4959678;28;20557;-67
2021/06/12 01:26:08;;;;;;;10.53;9.53;;;22.80;99.90;;;;;;4941211;29;20870;-66
2021/06/12 01:29:04;;;;;;;12.43;10.23;;;22.70;99.90;;;;;;4941727;28;20431;-67
2021/06/12 01:31:33;;;;;;;10.67;9.87;;;22.60;99.90;;;;;;4942551;28;20535;-66
2021/06/12 01:34:03;;;;;;;10.57;9.77;;;22.60;99.90;;;;;;4941975;29;20494;-67
2021/06/12 01:36:30;;;;;;;10.10;9.30;;;22.50;99.90;;;;;;4943119;28;20454;-67
2021/06/12 01:38:58;;;;;;;11.37;10.37;;;22.70;99.90;;;;;;4943994;29;20411;-67
2021/06/12 01:41:27;;;;;;;10.23;9.40;;;22.60;99.90;;;;;;4925324;29;20446;-67
2021/06/12 01:43:55;;;;;;;11.30;10.30;;;22.70;99.90;;;;;;4942071;29;21062;-66
2021/06/12 01:46:33;;;;;;;11.43;10.43;;;22.40;99.90;;;;;;4926300;29;20801;-67
2021/06/12 01:49:18;;;;;;;11.50;10.33;;;22.40;99.90;;;;;;4944847;29;20449;-66
2021/06/12 01:51:46;;;;;;;11.70;10.60;;;22.50;99.90;;;;;;4939884;29;20944;-66
2021/06/12 01:54:16;;;;;;;11.90;10.83;;;22.40;99.90;;;;;;4942612;28;20462;-67
2021/06/12 01:56:44;;;;;;;12.73;10.40;;;22.40;99.90;;;;;;4941142;28;21003;-66
2021/06/12 01:59:11;;;;;;;10.50;9.30;;;22.40;99.90;;;;;;4941536;28;20458;-66
2021/06/12 02:01:40;;;;;;;11.17;10.20;;;22.40;99.90;;;;;;4943712;29;20435;-66
2021/06/12 02:04:09;;;;;;;11.80;10.70;;;22.20;99.90;;;;;;4926695;29;20694;-67
2021/06/12 02:06:36;;;;;;;11.33;10.27;;;22.20;99.90;;;;;;4939947;28;20860;-67
2021/06/12 02:09:02;;;;;;;11.07;10.07;;;22.20;99.90;;;;;;4941812;28;20434;-66
2021/06/12 02:11:28;;;;;;;11.40;10.30;;;21.90;99.90;;;;;;4939945;29;20498;-67
2021/06/12 02:13:54;;;;;;;12.20;11.03;;;21.90;99.90;;;;;;4942203;28;20450;-67
2021/06/12 02:16:29;;;;;;;12.10;11.00;;;21.70;99.90;;;;;;4940737;28;20555;-67
2021/06/12 02:18:58;;;;;;;11.30;10.43;;;21.70;99.90;;;;;;4939996;28;21229;-67
2021/06/12 02:21:27;;;;;;;11.27;10.33;;;21.70;99.90;;;;;;4924141;29;20448;-67
2021/06/12 02:23:54;;;;;;;10.63;9.73;;;21.80;99.90;;;;;;4924770;29;20475;-67
2021/06/12 02:26:26;;;;;;;11.73;10.73;;;21.80;99.90;;;;;;4939911;29;20525;-67
2021/06/12 02:28:55;;;;;;;10.53;9.67;;;21.80;99.90;;;;;;4937360;29;20461;-67
2021/06/12 02:31:31;;;;;;;12.97;11.10;;;21.70;99.90;;;;;;4941196;29;20444;-66
2021/06/12 02:33:57;;;;;;;11.30;10.30;;;21.60;99.90;;;;;;4949990;28;20432;-66
2021/06/12 02:36:25;;;;;;;11.53;10.53;;;21.50;99.90;;;;;;4930038;29;20442;-67
2021/06/12 02:38:56;;;;;;;11.83;10.93;;;21.50;99.90;;;;;;4924914;29;20459;-67
2021/06/12 02:41:23;;;;;;;11.30;10.30;;;21.30;99.90;;;;;;4924316;29;20435;-66
2021/06/12 02:44:03;;;;;;;12.43;11.20;;;21.30;99.90;;;;;;4942567;29;20494;-66
2021/06/12 02:46:32;;;;;;;11.60;10.60;;;21.30;99.90;;;;;;4939520;29;20470;-67
2021/06/12 02:49:05;;;;;;;13.70;12.30;;;21.10;99.90;;;;;;4939453;29;20435;-66
2021/06/12 02:51:35;;;;;;;12.60;11.43;;;21.20;99.90;;;;;;4924982;29;20978;-67
2021/06/12 02:54:02;;;;;;;12.37;11.33;;;21.30;99.90;;;;;;4940247;29;20434;-67
2021/06/12 02:56:32;;;;;;;12.00;10.90;;;21.30;99.90;;;;;;4928194;29;20490;-67
2021/06/12 02:59:04;;;;;;;12.00;11.00;;;21.40;99.90;;;;;;4943146;29;20438;-67
2021/06/12 03:01:35;;;;;;;11.00;10.10;;;21.40;99.90;;;;;;4939161;29;20791;-66
2021/06/12 03:04:13;;;;;;;12.00;10.90;;;21.50;99.90;;;;;;4942092;28;20525;-66
2021/06/12 03:06:45;;;;;;;13.13;12.03;;;21.50;99.90;;;;;;4941326;28;20431;-65
2021/06/12 03:09:17;;;;;;;12.37;11.27;;;21.40;99.90;;;;;;4939140;29;20662;-66
2021/06/12 03:11:45;;;;;;;11.00;10.10;;;21.50;99.90;;;;;;4942451;28;20501;-66
2021/06/12 03:14:13;;;;;;;11.30;10.40;;;21.50;99.90;;;;;;4940881;28;20435;-66
2021/06/12 03:16:45;;;;;;;11.17;10.17;;;21.40;99.90;;;;;;4941363;28;20458;-67
2021/06/12 03:19:13;;;;;;;11.90;10.90;;;21.30;99.90;;;;;;4941853;29;20489;-67
2021/06/12 03:21:40;;;;;;;11.20;10.20;;;21.30;99.90;;;;;;4938465;29;20620;-68
2021/06/12 03:24:10;;;;;;;11.17;10.23;;;21.20;99.90;;;;;;5001312;22;20928;-67
2021/06/12 03:26:37;;;;;;;10.40;9.50;;;21.10;99.90;;;;;;4961011;28;20533;-66
2021/06/12 03:29:04;;;;;;;11.30;10.40;;;21.20;99.90;;;;;;4971059;28;20442;-66
2021/06/12 03:31:31;;;;;;;11.27;10.27;;;21.10;99.90;;;;;;4960513;28;20509;-66
2021/06/12 03:33:58;;;;;;;10.80;9.90;;;21.20;99.90;;;;;;4944098;29;20989;-66
2021/06/12 03:36:27;;;;;;;11.40;10.27;;;21.30;99.90;;;;;;4940031;29;20455;-67
2021/06/12 03:39:07;;;;;;;9.87;9.07;;;21.20;99.90;;;;;;4941779;29;20511;-67
2021/06/12 03:41:34;;;;;;;10.23;9.37;;;21.20;99.90;;;;;;4943349;29;20423;-67
2021/06/12 03:44:05;;;;;;;11.07;10.07;;;21.20;99.90;;;;;;4922375;29;20448;-68
2021/06/12 03:46:33;;;;;;;10.57;9.63;;;21.10;99.90;;;;;;4938169;29;20947;-67
2021/06/12 03:49:02;;;;;;;10.33;9.53;;;21.10;99.90;;;;;;4933775;28;20541;-66
2021/06/12 03:51:39;;;;;;;10.10;9.27;;;21.10;99.90;;;;;;4922777;29;20547;-66
2021/06/12 03:54:08;;;;;;;11.57;10.53;;;21.00;99.90;;;;;;4935648;28;20439;-67
2021/06/12 03:56:37;;;;;;;11.13;10.33;;;21.00;99.90;;;;;;4941037;29;20470;-67
2021/06/12 03:59:07;;;;;;;11.40;10.23;;;21.00;99.90;;;;;;4941934;28;20975;-67
2021/06/12 04:01:34;;;;;;;9.83;8.80;;;20.90;99.90;;;;;;4941188;28;20430;-66
2021/06/12 04:04:00;;;;;;;10.80;9.80;;;20.90;99.90;;;;;;4941670;28;20438;-66
2021/06/12 04:06:33;;;;;;;11.17;10.17;;;21.00;99.90;;;;;;4923929;29;20526;-66
2021/06/12 04:09:02;;;;;;;10.60;9.67;;;20.90;99.90;;;;;;4941444;29;21635;-67
2021/06/12 04:11:29;;;;;;;11.80;9.57;;;20.90;99.90;;;;;;4940771;29;20740;-66
2021/06/12 04:14:00;;;;;;;10.53;9.63;;;21.00;99.90;;;;;;4929577;29;20439;-68
2021/06/12 04:16:34;;;;;;;10.23;9.40;;;21.00;99.90;;;;;;4936653;28;20867;-68
2021/06/12 04:19:08;;;;;;;10.40;9.60;;;21.00;99.90;;;;;;4941878;29;20819;-68
2021/06/12 04:21:38;;;;;;;10.80;9.33;;;20.80;99.90;;;;;;4940568;29;20431;-68
2021/06/12 04:24:05;;;;;;;11.17;10.17;;;20.90;99.90;;;;;;4937689;29;20455;-68
2021/06/12 04:26:34;;;;;;;9.83;8.93;;;21.00;99.90;;;;;;4924312;29;20884;-66
2021/06/12 04:29:06;;;;;;;12.27;9.33;;;21.10;99.90;;;;;;4951132;23;160576;-66
2021/06/12 04:31:32;;;;;;;9.23;8.53;;;21.10;99.90;;;;;;4948488;28;20453;-68
2021/06/12 04:33:58;;;;;;;9.57;8.77;;;21.20;99.90;;;;;;4943747;28;20477;-66
2021/06/12 04:36:25;;;;;;;8.93;8.13;;;21.20;99.90;;;;;;4943003;28;20506;-68
2021/06/12 04:38:51;;;;;;;9.17;8.37;;;21.10;99.90;;;;;;4942051;28;20691;-68
2021/06/12 04:41:17;;;;;;;9.20;8.50;;;21.10;99.90;;;;;;4948885;28;20514;-68
2021/06/12 04:43:47;;;;;;;8.57;7.77;;;21.00;99.90;;;;;;4962218;28;20215;-68
2021/06/12 04:46:14;;;;;;;9.23;8.53;;;21.00;99.90;;;;;;4946317;28;20453;-68
2021/06/12 04:48:40;;;;;;;8.87;8.13;;;21.00;99.90;;;;;;4961782;28;20437;-67
2021/06/12 04:51:07;;;;;;;9.43;8.63;;;21.00;99.90;;;;;;4944042;28;20810;-68
2021/06/12 04:53:33;;;;;;;9.13;8.23;;;20.90;99.90;;;;;;4945608;28;20632;-68
2021/06/12 04:56:00;;;;;;;8.47;7.87;;;20.90;99.90;;;;;;4946118;28;21005;-68
2021/06/12 04:58:29;;;;;;;8.10;7.40;;;21.00;99.90;;;;;;4943872;28;20430;-69
2021/06/12 05:00:55;;;;;;;8.07;7.37;;;21.00;99.90;;;;;;4960063;28;20446;-68
2021/06/12 05:03:24;;;;;;;9.00;8.30;;;21.00;99.90;;;;;;4945953;28;20511;-68
2021/06/12 05:05:51;;;;;;;8.73;7.93;;;21.00;99.90;;;;;;4944945;28;20450;-68
2021/06/12 05:08:17;;;;;;;7.83;7.13;;;21.10;99.90;;;;;;4947798;28;20777;-67
2021/06/12 05:10:43;;;;;;;8.27;7.57;;;21.10;99.90;;;;;;4960157;28;20439;-67
2021/06/12 05:13:09;;;;;;;9.00;8.10;;;21.10;99.90;;;;;;4929851;28;20470;-67
2021/06/12 05:15:35;;;;;;;9.83;8.00;;;21.10;99.90;;;;;;4944892;28;20446;-68
2021/06/12 05:18:06;;;;;;;7.90;7.27;;;21.20;99.90;;;;;;4945944;28;20190;-68
2021/06/12 05:20:35;;;;;;;8.27;7.67;;;21.20;99.90;;;;;;4956695;28;20443;-67
2021/06/12 05:23:02;;;;;;;8.40;7.70;;;21.10;99.90;;;;;;4945050;28;20458;-68
2021/06/12 05:25:28;;;;;;;8.27;7.57;;;21.10;99.90;;;;;;4943166;28;20533;-68
2021/06/12 05:27:55;;;;;;;8.80;8.00;;;21.20;99.90;;;;;;4943125;28;20440;-68
2021/06/12 05:30:22;;;;;;;8.67;7.87;;;21.10;99.90;;;;;;4964361;28;20470;-68
2021/06/12 05:32:48;;;;;;;8.50;6.97;;;21.30;99.90;;;;;;4944786;28;20474;-68
2021/06/12 05:35:15;;;;;;;7.70;7.10;;;21.40;99.90;;;;;;4941747;28;20439;-68
2021/06/12 05:37:43;;;;;;;7.40;6.60;;;21.40;99.90;;;;;;4962525;28;20439;-67
2021/06/12 05:40:11;;;;;;;8.17;7.37;;;21.40;99.90;;;;;;4958540;28;20428;-68
2021/06/12 05:42:41;;;;;;;7.70;7.10;;;21.50;99.90;;;;;;4960687;28;22074;-68
2021/06/12 05:45:09;;;;;;;8.03;7.03;;;21.40;99.90;;;;;;4963108;28;21209;-68
2021/06/12 05:47:35;;;;;;;7.60;7.00;;;21.40;99.90;;;;;;4944388;28;20708;-67
2021/06/12 05:50:02;;;;;;;7.07;6.37;;;21.40;99.90;;;;;;4945902;28;20732;-68
2021/06/12 05:52:28;;;;;;;8.30;7.03;;;21.40;99.90;;;;;;4943520;28;20459;-68
2021/06/12 05:54:55;;;;;;;6.93;6.33;;;21.50;99.90;;;;;;4944171;28;20865;-66
2021/06/12 05:57:24;;;;;;;7.23;6.60;;;21.50;99.90;;;;;;4945123;28;21125;-66
2021/06/12 05:59:50;;;;;;;7.80;7.03;;;21.50;99.90;;;;;;4958190;28;20970;-68
2021/06/12 06:02:16;;;;;;;6.47;6.00;;;21.40;99.90;;;;;;4942627;28;20816;-67
2021/06/12 06:04:42;;;;;;;6.10;5.60;;;21.50;99.90;;;;;;4945125;28;20434;-68
2021/06/12 06:07:07;;;;;;;6.97;6.27;;;21.60;99.90;;;;;;4969766;28;20759;-67
2021/06/12 06:09:35;;;;;;;6.00;5.50;;;21.60;99.90;;;;;;4945405;28;20187;-67
2021/06/12 06:12:03;;;;;;;6.57;5.97;;;21.60;99.90;;;;;;4961332;28;20207;-67
2021/06/12 06:14:29;;;;;;;6.40;5.80;;;21.60;99.90;;;;;;4942182;28;20471;-68
2021/06/12 06:16:57;;;;;;;6.63;6.13;;;21.60;99.90;;;;;;4930803;28;20459;-67
2021/06/12 06:19:26;;;;;;;7.20;6.50;;;21.70;99.90;;;;;;4943594;28;20403;-67
2021/06/12 06:21:52;;;;;;;7.07;6.50;;;21.80;99.90;;;;;;4942948;28;20432;-67
2021/06/12 06:24:21;;;;;;;10.53;6.40;;;21.90;99.90;;;;;;4944028;28;20431;-67
2021/06/12 06:26:48;;;;;;;7.90;6.30;;;22.00;99.90;;;;;;4947793;28;20263;-67
2021/06/12 06:29:15;;;;;;;6.13;5.60;;;22.00;99.90;;;;;;4945636;28;20446;-68
2021/06/12 06:31:45;;;;;;;7.03;6.43;;;22.00;99.90;;;;;;4944348;28;20713;-68
2021/06/12 06:34:15;;;;;;;6.63;6.03;;;22.10;99.90;;;;;;4957616;28;20472;-67
2021/06/12 06:36:46;;;;;;;7.83;6.30;;;22.10;99.90;;;;;;4945638;28;20431;-67
2021/06/12 06:39:12;;;;;;;5.83;5.30;;;22.20;99.90;;;;;;4944160;28;20438;-67
2021/06/12 06:41:48;;;;;;;6.07;5.47;;;22.20;99.90;;;;;;4957363;28;20450;-68
2021/06/12 06:44:27;;;;;;;6.13;5.53;;;22.30;99.90;;;;;;4944402;28;21104;-68
2021/06/12 06:46:54;;;;;;;12.23;7.03;;;22.40;99.90;;;;;;4961626;28;20932;-65
2021/06/12 06:49:22;;;;;;;6.40;5.80;;;22.50;99.90;;;;;;4942651;28;20434;-66
2021/06/12 06:51:54;;;;;;;6.80;6.10;;;22.50;99.90;;;;;;4944596;28;20435;-66
2021/06/12 06:54:23;;;;;;;6.50;5.87;;;22.40;99.90;;;;;;4942192;28;20528;-67
2021/06/12 06:56:49;;;;;;;7.13;6.53;;;22.40;99.90;;;;;;4929179;28;20447;-67
2021/06/12 07:00:10;;;;;;;6.23;5.73;;;22.40;99.90;;;;;;4946629;28;20510;-66
2021/06/12 07:02:36;;;;;;;5.20;4.80;;;22.40;99.90;;;;;;4972437;28;20459;-66
2021/06/12 07:05:04;;;;;;;7.87;6.10;;;22.50;99.90;;;;;;4942242;28;20448;-66
2021/06/12 07:07:30;;;;;;;6.20;5.70;;;22.50;99.90;;;;;;4946290;28;20769;-66
2021/06/12 07:09:57;;;;;;;7.00;6.40;;;22.50;99.90;;;;;;4940472;28;20427;-66
2021/06/12 07:12:22;;;;;;;8.33;7.20;;;22.50;99.90;;;;;;4943299;28;20521;-66
2021/06/12 07:14:48;;;;;;;7.47;6.80;;;22.50;99.90;;;;;;4957245;28;20439;-66
2021/06/12 07:17:16;;;;;;;7.10;6.50;;;22.60;99.90;;;;;;4945448;28;20565;-66
2021/06/12 07:19:42;;;;;;;10.30;9.30;;;22.60;99.90;;;;;;4961466;28;20480;-65
2021/06/12 07:22:12;;;;;;;8.10;7.30;;;22.60;99.90;;;;;;4942677;28;20489;-66
2021/06/12 07:24:38;;;;;;;10.70;9.70;;;22.60;99.90;;;;;;4940609;28;20453;-66
2021/06/12 07:27:07;;;;;;;9.30;8.40;;;22.60;99.90;;;;;;4945471;28;20430;-68
2021/06/12 07:29:33;;;;;;;10.90;9.90;;;22.70;99.90;;;;;;4943039;28;20206;-66
2021/06/12 07:31:59;;;;;;;9.40;8.60;;;22.70;99.90;;;;;;4929189;28;20487;-68
2021/06/12 07:34:26;;;;;;;10.00;9.10;;;22.70;99.90;;;;;;4930387;28;20481;-66
2021/06/12 07:36:52;;;;;;;10.77;9.87;;;22.70;99.90;;;;;;4943555;28;20199;-68
2021/06/12 07:39:18;;;;;;;10.03;9.20;;;22.70;99.90;;;;;;4941396;28;20431;-68
2021/06/12 07:41:56;;;;;;;10.10;9.20;;;22.80;99.90;;;;;;4941259;28;20454;-68
2021/06/12 07:44:22;;;;;;;9.70;8.90;;;22.90;99.90;;;;;;4941969;28;20434;-68
2021/06/12 07:46:48;;;;;;;8.70;8.00;;;23.00;99.90;;;;;;4941693;28;20962;-68
2021/06/12 07:49:14;;;;;;;8.70;7.90;;;23.00;99.90;;;;;;4943867;28;20440;-68
2021/06/12 07:51:42;;;;;;;7.27;6.57;;;23.10;99.90;;;;;;4943076;28;20446;-68
2021/06/12 07:54:09;;;;;;;6.60;6.00;;;23.20;99.90;;;;;;4944012;28;20222;-68
2021/06/12 07:56:35;;;;;;;7.07;6.47;;;23.20;99.90;;;;;;4943857;28;20967;-68
2021/06/12 07:59:01;;;;;;;6.63;5.63;;;23.20;99.90;;;;;;4959493;28;20819;-68
2021/06/12 08:01:37;;;;;;;6.03;5.37;;;23.10;99.90;;;;;;4948905;28;21026;-68
2021/06/12 08:04:03;;;;;;;5.70;5.20;;;23.20;99.90;;;;;;4946251;28;20982;-68
2021/06/12 08:06:33;;;;;;;5.07;4.57;;;23.20;99.90;;;;;;4941107;28;20442;-68
2021/06/12 08:09:19;;;;;;;6.47;5.87;;;23.30;99.90;;;;;;4944336;28;20495;-67
2021/06/12 08:11:53;;;;;;;5.17;4.73;;;23.30;99.90;;;;;;4956859;28;20490;-67
2021/06/12 08:14:19;;;;;;;6.00;5.00;;;23.40;99.90;;;;;;4944643;28;20746;-68
2021/06/12 08:16:49;;;;;;;5.10;4.70;;;23.50;99.90;;;;;;4946144;28;20807;-68
2021/06/12 08:19:20;;;;;;;5.97;5.40;;;;;;;;;;4944688;28;20504;-67
2021/06/12 08:21:50;;;;;;;6.80;4.70;;;23.60;99.90;;;;;;4944785;28;20918;-68
2021/06/12 08:24:24;;;;;;;5.67;5.10;;;23.70;99.90;;;;;;4946636;28;20765;-67
2021/06/12 08:26:50;;;;;;;5.57;4.83;;;23.90;99.90;;;;;;4947476;28;20438;-68
2021/06/12 08:29:21;;;;;;;5.30;4.90;;;23.90;99.90;;;;;;4959871;28;20931;-68
2021/06/12 08:31:47;;;;;;;8.40;4.13;;;24.00;99.90;;;;;;4948051;28;20195;-66
2021/06/12 08:34:19;;;;;;;6.60;6.00;;;24.10;99.90;;;;;;4941585;28;20786;-66
2021/06/12 08:36:46;;;;;;;6.23;5.50;;;24.10;99.90;;;;;;4944171;28;20435;-69
2021/06/12 08:39:19;;;;;;;7.27;6.53;;;24.10;99.90;;;;;;4949534;28;20501;-66
2021/06/12 08:41:50;;;;;;;5.47;4.90;;;24.10;99.90;;;;;;4945832;28;21001;-68
2021/06/12 08:44:32;;;;;;;6.53;5.90;;;24.20;99.90;;;;;;4943659;28;20496;-66
2021/06/12 08:47:06;;;;;;;5.43;4.80;;;24.30;99.90;;;;;;4943675;28;20891;-66
2021/06/12 08:49:52;;;;;;;5.40;4.33;;;24.40;99.90;;;;;;4944390;28;20498;-66
2021/06/12 08:52:19;;;;;;;4.03;3.73;;;24.60;99.90;;;;;;4940828;28;20478;-65
2021/06/12 08:54:49;;;;;;;6.27;5.77;;;24.80;99.90;;;;;;4956112;28;20822;-67
2021/06/12 08:57:15;;;;;;;6.53;5.97;;;24.80;99.90;;;;;;4945102;28;21035;-66
2021/06/12 08:59:53;;;;;;;6.40;5.90;;;24.90;99.90;;;;;;4940460;28;20450;-66
2021/06/12 09:02:20;;;;;;;6.83;6.30;;;24.90;99.90;;;;;;4960185;28;21004;-67
2021/06/12 09:04:55;;;;;;;6.23;5.73;;;24.90;99.90;;;;;;4923696;28;20478;-67
2021/06/12 09:07:35;;;;;;;5.70;5.20;;;24.80;99.90;;;;;;4942956;28;20443;-66
2021/06/12 09:10:02;;;;;;;5.27;4.87;;;24.80;99.90;;;;;;4941987;28;20442;-66
2021/06/12 09:12:51;;;;;;;5.77;5.30;;;24.80;99.90;;;;;;4946565;28;20473;-67
2021/06/12 09:15:18;;;;;;;7.73;5.70;;;24.70;99.90;;;;;;4961473;28;20469;-66
2021/06/12 09:17:51;;;;;;;5.50;4.93;;;24.80;99.90;;;;;;4976562;28;20577;-66
2021/06/12 09:20:31;;;;;;;5.00;4.60;;;24.90;99.90;;;;;;4929226;28;20455;-66
2021/06/12 09:23:18;;;;;;;11.43;4.50;;;25.00;99.90;;;;;;4941646;28;20487;-66
2021/06/12 09:26:42;;;;;;;10.13;7.30;;;25.10;99.90;;;;;;4960742;28;20494;-69
2021/06/12 09:29:37;;;;;;;5.83;4.87;;;25.30;99.90;;;;;;4885033;29;21668;-67
2021/06/12 09:32:43;;;;;;;6.77;5.27;;;25.30;99.90;;;;;;4931483;28;20492;-64
2021/06/12 09:35:51;;;;;;;5.60;5.10;;;25.40;99.90;;;;;;4945145;28;20572;-67
2021/06/12 09:38:32;;;;;;;5.40;4.90;;;25.30;99.90;;;;;;4942418;28;20488;-68
2021/06/12 09:41:53;;;;;;;7.20;6.60;;;25.30;99.90;;;;;;4945523;28;20419;-66
2021/06/12 09:45:00;;;;;;;7.43;6.83;;;25.30;99.90;;;;;;4958343;28;20920;-68
2021/06/12 09:47:54;;;;;;;6.00;5.40;;;25.20;99.90;;;;;;4899090;28;20512;-69
2021/06/12 09:51:05;;;;;;;6.30;5.30;;;25.30;99.90;;;;;;4913738;28;20474;-67
2021/06/12 09:53:43;;;;;;;6.00;5.50;;;25.50;99.90;;;;;;4849207;28;20824;-65
2021/06/12 09:56:20;;;;;;;5.70;5.00;;;25.40;99.90;;;;;;4963680;28;20540;-67
2021/06/12 10:00:01;;;;;;;5.60;5.10;;;25.30;99.90;;;;;;4956856;28;20449;-66
2021/06/12 10:03:05;;;;;;;5.53;4.93;;;25.60;99.90;;;;;;4960568;28;20504;-67
2021/06/12 10:05:40;;;;;;;5.30;4.73;;;25.60;99.90;;;;;;4960440;28;20812;-68
2021/06/12 10:08:24;;;;;;;6.50;5.60;;;25.60;99.90;;;;;;4964867;28;21002;-68
2021/06/12 10:11:32;;;;;;;6.93;4.90;;;25.50;99.90;;;;;;4962476;28;20470;-68
2021/06/12 10:18:16;;;;;;;5.60;4.40;;;25.50;99.90;;;;;;4924392;29;20526;-67
2021/06/12 10:21:31;;;;;;;5.27;4.67;;;25.70;99.90;;;;;;4921835;29;20485;-68
2021/06/12 10:25:07;;;;;;;7.57;4.77;;;25.80;99.90;;;;;;4923216;29;20485;-69
2021/06/12 10:28:01;;;;;;;7.53;4.70;;;25.90;99.90;;;;;;4923548;29;20699;-69
2021/06/12 10:31:24;;;;;;;6.03;4.70;;;26.10;99.90;;;;;;4938057;29;20844;-68
2021/06/12 10:34:43;;;;;;;4.87;4.43;;;26.10;99.90;;;;;;4934770;29;20546;-69
2021/06/12 10:37:33;;;;;;;5.30;4.90;;;26.10;99.90;;;;;;4907111;29;20467;-68
2021/06/12 10:40:34;;;;;;;4.67;4.10;;;26.20;99.90;;;;;;4882777;29;20517;-70
2021/06/12 10:43:58;;;;;;;5.00;4.20;;;26.30;99.90;;;;;;4866453;29;20639;-69
2021/06/12 10:57:47;;;;;;;4.07;3.67;;;26.60;99.90;;;;;;4960938;28;20421;-68
2021/06/12 11:01:26;;;;;;;3.53;3.23;;;26.60;99.90;;;;;;4951861;28;20442;-68
2021/06/12 11:04:30;;;;;;;3.90;3.60;;;26.80;99.90;;;;;;4856876;29;20469;-69
2021/06/12 11:07:10;;;;;;;5.63;4.67;;;26.70;99.90;;;;;;4866215;29;20495;-67
2021/06/12 11:09:53;;;;;;;3.93;3.63;;;26.80;99.90;;;;;;4854904;29;20982;-68
2021/06/12 11:12:27;;;;;;;4.13;3.73;;;26.90;99.90;;;;;;4851052;29;20566;-68
2021/06/12 11:15:35;;;;;;;4.30;3.37;;;27.10;99.90;;;;;;4866081;29;20447;-69
2021/06/12 11:18:50;;;;;;;3.57;3.27;;;27.20;99.90;;;;;;4904701;28;20437;-69
2021/06/12 11:21:18;;;;;;;3.63;3.30;;;27.60;99.90;;;;;;4957195;28;20430;-68
2021/06/12 11:23:54;;;;;;;3.90;3.60;;;27.30;99.90;;;;;;4963020;28;20547;-69
2021/06/12 11:27:04;;;;;;;3.63;3.40;;;27.00;99.90;;;;;;4959181;28;20445;-69
2021/06/12 11:30:19;;;;;;;4.20;2.83;;;27.00;99.90;;;;;;4962339;28;20449;-69
2021/06/12 11:33:27;;;;;;;3.83;3.53;;;27.20;99.90;;;;;;4961800;28;20485;-67
2021/06/12 11:36:19;;;;;;;4.03;3.70;;;27.70;99.90;;;;;;4955681;28;20950;-69
2021/06/12 11:38:51;;;;;;;3.13;2.83;;;27.80;99.90;;;;;;4954170;28;20525;-68
2021/06/12 11:41:50;;;;;;;6.33;4.00;;;27.80;99.90;;;;;;4959452;28;20560;-69
2021/06/12 11:44:42;;;;;;;3.53;3.23;;;28.10;99.90;;;;;;4961804;28;20460;-69
2021/06/12 11:47:26;;;;;;;2.87;2.67;;;28.10;99.90;;;;;;4962911;28;20771;-70
2021/06/12 11:50:01;;;;;;;3.33;3.03;;;28.30;99.90;;;;;;4961767;28;20437;-68
2021/06/12 11:53:57;;;;;;;3.13;2.87;;;28.40;99.90;;;;;;4952487;28;20532;-68
2021/06/12 11:59:59;;;;;;;3.47;3.27;;;29.10;99.90;;;;;;4938325;29;20990;-68
2021/06/12 12:02:43;;;;;;;6.60;3.70;;;29.20;99.90;;;;;;4923304;29;20477;-67
2021/06/12 12:05:35;;;;;;;3.50;2.93;;;29.70;99.90;;;;;;4932585;29;20444;-67
2021/06/12 12:08:24;;;;;;;3.47;3.17;;;30.30;99.90;;;;;;4930769;29;21162;-67
2021/06/12 12:10:54;;;;;;;3.23;2.93;;;30.50;99.90;;;;;;4940277;29;20446;-67
2021/06/12 12:13:47;;;;;;;3.00;2.77;;;30.40;99.90;;;;;;4935612;29;20536;-67
2021/06/12 12:16:45;;;;;;;3.13;2.80;;;30.20;99.70;;;;;;4912616;29;20482;-69
2021/06/12 12:19:46;;;;;;;3.20;2.63;;;30.70;99.90;;;;;;4935941;29;20817;-68
2021/06/12 12:22:19;;;;;;;2.60;2.40;;;31.30;98.20;;;;;;4924237;29;21068;-69
2021/06/12 12:24:48;;;;;;;2.77;2.57;;;31.60;97.60;;;;;;4925270;29;20446;-68
2021/06/12 12:27:30;;;;;;;2.90;2.70;;;31.80;94.90;;;;;;4933458;29;20454;-69
2021/06/12 12:30:47;;;;;;;4.50;2.53;;;32.40;93.30;;;;;;4898416;29;20469;-69
2021/06/12 12:33:57;;;;;;;3.03;2.70;;;32.40;92.30;;;;;;4899435;29;20556;-69
2021/06/12 12:36:57;;;;;;;2.47;2.27;;;32.40;91.10;;;;;;4846430;29;20547;-69
2021/06/12 12:40:06;;;;;;;2.53;2.20;;;32.40;90.30;;;;;;4955853;28;20552;-68
2021/06/12 12:42:51;;;;;;;3.57;2.57;;;32.90;87.80;;;;;;4963053;28;20460;-67
2021/06/12 12:45:48;;;;;;;2.60;2.40;;;32.90;86.90;;;;;;4978521;28;20946;-68
2021/06/12 12:48:48;;;;;;;2.43;2.23;;;33.00;84.50;;;;;;4965568;28;20440;-67
2021/06/12 12:51:36;;;;;;;2.50;2.30;;;33.70;79.00;;;;;;4961093;28;20518;-69
2021/06/12 12:54:29;;;;;;;2.60;2.40;;;32.90;78.80;;;;;;4924589;29;20463;-69
2021/06/12 12:57:15;;;;;;;2.70;2.50;;;31.80;80.90;;;;;;4878422;29;20514;-68
2021/06/12 12:59:44;;;;;;;4.33;2.33;;;31.90;82.70;;;;;;4920536;29;20903;-68
2021/06/12 13:02:42;;;;;;;2.40;2.20;;;32.90;80.70;;;;;;4909218;29;20482;-69
2021/06/12 13:05:56;;;;;;;2.47;2.27;;;33.60;78.20;;;;;;4907603;29;20530;-69
2021/06/12 13:08:22;;;;;;;2.33;2.23;;;32.70;77.00;;;;;;4936457;28;20459;-68
2021/06/12 13:11:40;;;;;;;3.50;2.30;;;32.20;75.70;;;;;;4948747;28;20480;-70
2021/06/12 13:14:48;;;;;;;2.10;2.00;;;32.80;77.10;;;;;;4959194;28;21139;-69
2021/06/12 13:17:31;;;;;;;3.93;2.70;;;33.80;73.90;;;;;;4958448;28;20540;-69
2021/06/12 13:21:12;;;;;;;2.30;2.17;;;33.20;72.50;;;;;;4963351;28;20496;-67
2021/06/12 13:24:23;;;;;;;1.97;1.87;;;32.20;72.60;;;;;;4961038;28;20453;-70
2021/06/12 13:26:59;;;;;;;2.33;2.13;;;31.40;75.00;;;;;;4966759;28;20444;-69
2021/06/12 13:29:47;;;;;;;1.90;1.80;;;30.50;75.50;;;;;;4960741;28;20408;-70
2021/06/12 13:32:26;;;;;;;2.10;1.90;;;30.00;76.40;;;;;;4958980;28;20470;-70
2021/06/12 13:35:57;;;;;;;1.70;1.60;;;30.80;75.40;;;;;;4925896;29;20535;-69
2021/06/12 13:39:11;;;;;;;2.50;2.30;;;32.40;72.80;;;;;;4854378;29;20876;-66
2021/06/12 13:48:45;;;;;;;2.20;2.03;;;34.40;66.40;;;;;;4831029;29;20443;-68
2021/06/12 14:01:41;;;;;;;2.47;2.27;;;32.00;65.80;;;;;;4803303;29;20542;-68
2021/06/12 14:05:41;;;;;;;3.13;2.20;;;31.70;67.60;;;;;;4818743;29;20506;-70
2021/06/12 14:12:06;;;;;;;2.53;1.80;;;36.40;57.00;;;;;;4918317;28;20760;-69
2021/06/12 14:15:38;;;;;;;1.90;1.80;;;36.70;55.20;;;;;;4847961;29;20594;-68
2021/06/12 14:18:45;;;;;;;1.93;1.83;;;35.40;55.70;;;;;;4859580;29;20915;-69